Time;durP1;ratioP1;P1;durP2;ratioP2;P2;SDS_P1;SDS_P2;PMS_P1;PMS_P2;Temp;Humidity;BMP_temperature;BMP_pressure;BME280_temperature;BME280_humidity;BME280_pressure;Samples;Min_cycle;Max_cycle;Signal;HPM_P1;HPM_P2
2022/08/10 00:00:54;;;;;;;0.00;0.00;;;15.90;99.90;;;;;;5114848;28;20081;-80
2022/08/10 00:03:20;;;;;;;0.00;0.00;;;15.90;99.90;;;;;;5115062;28;20135;-79
2022/08/10 00:05:46;;;;;;;0.00;0.00;;;15.90;99.90;;;;;;5115113;28;20387;-79
2022/08/10 00:08:11;;;;;;;0.00;0.00;;;15.80;99.90;;;;;;5114562;28;20402;-80
2022/08/10 00:10:37;;;;;;;0.00;0.00;;;15.80;99.90;;;;;;5114468;28;20047;-80
2022/08/10 00:13:03;;;;;;;0.00;0.00;;;15.80;99.90;;;;;;5114255;28;20051;-80
2022/08/10 00:15:29;;;;;;;0.00;0.00;;;15.80;99.90;;;;;;5114367;28;20044;-79
2022/08/10 00:17:55;;;;;;;0.00;0.00;;;15.70;99.90;;;;;;5114622;28;20043;-80
2022/08/10 00:20:20;;;;;;;0.00;0.00;;;15.70;99.90;;;;;;5114478;28;20395;-79
2022/08/10 00:22:46;;;;;;;0.00;0.00;;;15.70;99.90;;;;;;5114440;28;20096;-79
2022/08/10 00:25:12;;;;;;;0.00;0.00;;;15.60;99.90;;;;;;5114260;28;20483;-80
2022/08/10 00:27:37;;;;;;;0.00;0.00;;;15.60;99.90;;;;;;5114191;28;20102;-80
2022/08/10 00:30:05;;;;;;;0.00;0.00;;;15.60;99.90;;;;;;5114706;28;20043;-80
2022/08/10 00:32:31;;;;;;;0.00;0.00;;;15.60;99.90;;;;;;5097193;28;20039;-80
2022/08/10 00:34:56;;;;;;;0.00;0.00;;;15.50;99.90;;;;;;5097255;28;20452;-80
2022/08/10 00:37:22;;;;;;;0.70;0.00;;;15.50;99.90;;;;;;5096761;28;20466;-80
2022/08/10 00:39:48;;;;;;;0.00;0.00;;;15.50;99.90;;;;;;5114392;28;20039;-80
2022/08/10 00:42:14;;;;;;;0.00;0.00;;;15.40;99.90;;;;;;5114317;28;20043;-80
2022/08/10 00:44:45;;;;;;;0.00;0.00;;;15.50;99.90;;;;;;5114499;28;20082;-80
2022/08/10 00:47:12;;;;;;;0.00;0.00;;;15.50;99.90;;;;;;5097496;28;20051;-80
2022/08/10 00:49:39;;;;;;;0.00;0.00;;;15.40;99.90;;;;;;5113401;28;20499;-79
2022/08/10 00:52:07;;;;;;;0.00;0.00;;;15.40;99.90;;;;;;5113692;28;20043;-79
2022/08/10 00:54:35;;;;;;;0.00;0.00;;;15.40;99.90;;;;;;5114033;28;20044;-80
2022/08/10 00:57:04;;;;;;;0.00;0.00;;;15.40;99.90;;;;;;5113624;28;20506;-79
2022/08/10 00:59:31;;;;;;;0.00;0.00;;;15.40;99.90;;;;;;5113782;28;20524;-79
2022/08/10 01:01:58;;;;;;;0.00;0.00;;;15.30;99.90;;;;;;5097290;28;20039;-80
2022/08/10 01:04:24;;;;;;;0.00;0.00;;;15.40;99.90;;;;;;5114028;28;20043;-80
2022/08/10 01:07:17;;;;;;;0.00;0.00;;;15.30;99.90;;;;;;5113717;28;20126;-79
2022/08/10 01:10:18;;;;;;;0.00;0.00;;;15.30;99.90;;;;;;5096326;28;20044;-79
2022/08/10 01:12:46;;;;;;;0.00;0.00;;;15.20;99.90;;;;;;5096752;28;20083;-79
2022/08/10 01:15:41;;;;;;;0.00;0.00;;;15.20;99.90;;;;;;5113555;28;20044;-79
2022/08/10 01:18:56;;;;;;;0.00;0.00;;;15.20;99.90;;;;;;5113289;28;20403;-79
2022/08/10 01:21:45;;;;;;;0.08;0.08;;;15.20;99.90;;;;;;5048773;28;20107;-79
2022/08/10 01:24:17;;;;;;;0.00;0.00;;;15.10;99.90;;;;;;5035854;28;20045;-79
2022/08/10 01:27:06;;;;;;;0.00;0.00;;;15.10;99.90;;;;;;5035633;28;20144;-79
2022/08/10 01:29:53;;;;;;;0.00;0.00;;;15.10;99.90;;;;;;5035614;28;20041;-79
2022/08/10 01:32:50;;;;;;;0.00;0.00;;;15.10;99.90;;;;;;5035066;28;20053;-79
2022/08/10 01:35:40;;;;;;;0.00;0.00;;;15.10;99.90;;;;;;4976448;28;20194;-79
2022/08/10 01:38:09;;;;;;;0.00;0.00;;;15.10;99.90;;;;;;4976262;28;20047;-79
2022/08/10 01:40:40;;;;;;;0.00;0.00;;;15.00;99.90;;;;;;4960441;28;20058;-79
2022/08/10 01:43:09;;;;;;;0.00;0.00;;;15.10;99.90;;;;;;4977211;28;20516;-79
2022/08/10 01:45:42;;;;;;;0.00;0.00;;;15.00;99.90;;;;;;4975869;28;20066;-80
2022/08/10 01:48:29;;;;;;;0.00;0.00;;;15.00;99.90;;;;;;4974882;28;20129;-79
2022/08/10 01:51:10;;;;;;;0.00;0.00;;;15.00;99.90;;;;;;4956457;28;20058;-80
2022/08/10 01:53:43;;;;;;;0.00;0.00;;;15.00;99.90;;;;;;4975480;28;20081;-80
2022/08/10 01:56:12;;;;;;;0.00;0.00;;;15.00;99.90;;;;;;4976363;28;20054;-79
2022/08/10 01:58:38;;;;;;;0.00;0.00;;;15.00;99.90;;;;;;5037600;28;20532;-79
2022/08/10 02:01:08;;;;;;;0.00;0.00;;;14.90;99.90;;;;;;5055042;28;20056;-79
2022/08/10 02:03:35;;;;;;;0.00;0.00;;;14.90;99.90;;;;;;5038232;28;20110;-80
2022/08/10 02:06:03;;;;;;;0.28;0.17;;;14.90;99.90;;;;;;5054805;28;20060;-79
2022/08/10 02:08:31;;;;;;;0.00;0.00;;;14.90;99.90;;;;;;5054836;28;20085;-80
2022/08/10 02:10:59;;;;;;;0.00;0.00;;;14.90;99.90;;;;;;5056627;28;20040;-79
2022/08/10 02:13:26;;;;;;;0.00;0.00;;;14.90;99.90;;;;;;5095892;28;20047;-80
2022/08/10 02:15:54;;;;;;;0.00;0.00;;;14.90;99.90;;;;;;5095702;28;20058;-80
2022/08/10 02:18:22;;;;;;;0.00;0.00;;;14.90;99.90;;;;;;5113206;28;20097;-79
2022/08/10 02:20:50;;;;;;;0.00;0.00;;;14.90;99.90;;;;;;5113015;28;20083;-79
2022/08/10 02:23:27;;;;;;;0.00;0.00;;;14.80;99.90;;;;;;5099704;28;20425;-80
2022/08/10 02:25:56;;;;;;;0.00;0.00;;;14.80;99.90;;;;;;5116471;28;20122;-80
2022/08/10 02:28:24;;;;;;;0.00;0.00;;;14.80;99.90;;;;;;5099466;28;20092;-80
2022/08/10 02:30:53;;;;;;;0.00;0.00;;;14.80;99.90;;;;;;5099637;28;20524;-80
2022/08/10 02:33:20;;;;;;;0.00;0.00;;;14.80;99.90;;;;;;5116609;28;20063;-80
2022/08/10 02:35:49;;;;;;;0.00;0.00;;;14.80;99.90;;;;;;5100133;28;20050;-80
2022/08/10 02:38:19;;;;;;;0.00;0.00;;;14.80;99.90;;;;;;5099537;28;20047;-80
2022/08/10 02:40:48;;;;;;;0.00;0.00;;;14.70;99.90;;;;;;5116636;28;20051;-79
2022/08/10 02:43:17;;;;;;;0.00;0.00;;;14.70;99.90;;;;;;5116643;28;20046;-80
2022/08/10 02:45:53;;;;;;;0.30;0.30;;;14.70;99.90;;;;;;5116506;28;20043;-80
2022/08/10 02:48:23;;;;;;;0.52;0.00;;;14.70;99.90;;;;;;5116373;28;20049;-80
2022/08/10 02:51:00;;;;;;;0.00;0.00;;;14.70;99.90;;;;;;5116181;28;20096;-80
2022/08/10 02:53:40;;;;;;;0.00;0.00;;;14.70;99.90;;;;;;5116679;28;20039;-80
2022/08/10 02:56:10;;;;;;;0.00;0.00;;;14.60;99.90;;;;;;5116497;28;20040;-80
2022/08/10 02:58:44;;;;;;;0.00;0.00;;;14.70;99.90;;;;;;5099370;28;20047;-80
2022/08/10 03:01:13;;;;;;;0.00;0.00;;;14.70;99.90;;;;;;5115754;28;20495;-80
2022/08/10 03:03:47;;;;;;;0.20;0.20;;;14.70;99.90;;;;;;5116312;28;20047;-79
2022/08/10 03:06:16;;;;;;;0.00;0.00;;;14.70;99.90;;;;;;5116451;28;20044;-80
2022/08/10 03:08:43;;;;;;;0.00;0.00;;;14.60;99.90;;;;;;5098986;28;20087;-80
2022/08/10 03:11:16;;;;;;;0.00;0.00;;;14.70;99.90;;;;;;5098783;28;20039;-80
2022/08/10 03:13:44;;;;;;;0.10;0.10;;;14.70;99.90;;;;;;5098766;28;20055;-80
2022/08/10 03:16:11;;;;;;;0.25;0.17;;;14.70;99.90;;;;;;5098802;28;20110;-80
2022/08/10 03:18:38;;;;;;;0.00;0.00;;;14.70;99.90;;;;;;5098561;28;20059;-80
2022/08/10 03:21:06;;;;;;;0.00;0.00;;;14.70;99.90;;;;;;5115579;28;20056;-80
2022/08/10 03:23:32;;;;;;;0.00;0.00;;;14.70;99.90;;;;;;5115655;28;20039;-80
2022/08/10 03:25:59;;;;;;;0.00;0.00;;;14.70;99.90;;;;;;5115566;28;20471;-80
2022/08/10 03:28:27;;;;;;;0.00;0.00;;;14.70;99.90;;;;;;5098394;28;20091;-79
2022/08/10 03:30:55;;;;;;;0.10;0.10;;;14.60;99.90;;;;;;5098974;28;20104;-80
2022/08/10 03:33:23;;;;;;;0.00;0.00;;;14.60;99.90;;;;;;5115015;28;20075;-79
2022/08/10 03:35:50;;;;;;;0.00;0.00;;;14.60;99.90;;;;;;5098539;28;20043;-80
2022/08/10 03:38:16;;;;;;;0.43;0.10;;;14.60;99.90;;;;;;5115338;28;20047;-80
2022/08/10 03:40:44;;;;;;;0.00;0.00;;;14.60;99.90;;;;;;5115492;28;20073;-80
2022/08/10 03:43:12;;;;;;;0.00;0.00;;;14.60;99.90;;;;;;5115359;28;20047;-80
2022/08/10 03:45:39;;;;;;;0.00;0.00;;;14.50;99.90;;;;;;5098958;28;20134;-80
2022/08/10 03:48:06;;;;;;;0.00;0.00;;;14.50;99.90;;;;;;5097761;28;20083;-79
2022/08/10 03:50:33;;;;;;;0.00;0.00;;;14.50;99.90;;;;;;5114190;28;20513;-80
2022/08/10 03:52:58;;;;;;;0.00;0.00;;;14.50;99.90;;;;;;5097824;28;20052;-79
2022/08/10 03:55:25;;;;;;;0.00;0.00;;;14.40;99.90;;;;;;5115040;28;20181;-79
2022/08/10 03:57:50;;;;;;;0.00;0.00;;;14.40;99.90;;;;;;5114924;28;20083;-80
2022/08/10 04:00:17;;;;;;;0.00;0.00;;;14.40;99.90;;;;;;5098395;28;20437;-79
2022/08/10 04:02:46;;;;;;;0.00;0.00;;;14.40;99.90;;;;;;5097562;28;20055;-79
2022/08/10 04:05:15;;;;;;;0.00;0.00;;;14.40;99.90;;;;;;5098157;28;20054;-79
2022/08/10 04:07:44;;;;;;;0.00;0.00;;;14.40;99.90;;;;;;5114826;28;20073;-79
2022/08/10 04:10:10;;;;;;;0.00;0.00;;;14.40;99.90;;;;;;5114670;28;20047;-80
2022/08/10 04:12:36;;;;;;;0.00;0.00;;;14.40;99.90;;;;;;5114435;28;20038;-79
2022/08/10 04:15:02;;;;;;;0.00;0.00;;;14.30;99.90;;;;;;5097500;28;20134;-80
2022/08/10 04:17:27;;;;;;;0.43;0.15;;;14.30;99.90;;;;;;5114406;28;20051;-80
2022/08/10 04:19:56;;;;;;;0.00;0.00;;;14.30;99.90;;;;;;5114635;28;20046;-79
2022/08/10 04:22:24;;;;;;;0.80;0.20;;;14.30;99.90;;;;;;5097104;28;20098;-79
2022/08/10 04:24:55;;;;;;;0.00;0.00;;;14.30;99.90;;;;;;5097434;28;20059;-79
2022/08/10 04:27:21;;;;;;;0.00;0.00;;;14.30;99.90;;;;;;5097985;28;20051;-80
2022/08/10 04:29:49;;;;;;;0.00;0.00;;;14.20;99.90;;;;;;5097337;28;20043;-79
2022/08/10 04:32:18;;;;;;;0.00;0.00;;;14.20;99.90;;;;;;5097368;28;20079;-79
2022/08/10 04:34:45;;;;;;;0.00;0.00;;;14.20;99.90;;;;;;5097617;28;20040;-80
2022/08/10 04:37:12;;;;;;;0.00;0.00;;;14.20;99.90;;;;;;5114607;28;20048;-79
2022/08/10 04:39:38;;;;;;;0.00;0.00;;;14.20;99.90;;;;;;5098223;28;20047;-79
2022/08/10 04:42:04;;;;;;;0.00;0.00;;;14.20;99.90;;;;;;5114366;28;20044;-80
2022/08/10 04:44:31;;;;;;;0.00;0.00;;;14.20;99.90;;;;;;5113697;28;20044;-79
2022/08/10 04:46:57;;;;;;;0.00;0.00;;;14.20;99.90;;;;;;5096451;28;20051;-79
2022/08/10 04:49:22;;;;;;;0.00;0.00;;;14.30;99.90;;;;;;5113927;28;20056;-79
2022/08/10 04:51:48;;;;;;;0.00;0.00;;;14.20;99.90;;;;;;5113843;28;20483;-79
2022/08/10 04:54:14;;;;;;;0.00;0.00;;;14.20;99.90;;;;;;5096910;28;20048;-79
2022/08/10 04:56:39;;;;;;;0.00;0.00;;;14.20;99.90;;;;;;5114191;28;20055;-79
2022/08/10 04:59:07;;;;;;;0.00;0.00;;;14.20;99.90;;;;;;5096520;28;20403;-79
2022/08/10 05:01:33;;;;;;;0.00;0.00;;;14.20;99.90;;;;;;5113885;28;20035;-79
2022/08/10 05:03:59;;;;;;;1.08;0.00;;;14.20;99.90;;;;;;5113562;28;20047;-79
2022/08/10 05:06:24;;;;;;;0.00;0.00;;;14.20;99.90;;;;;;5113591;28;20387;-79
2022/08/10 05:08:50;;;;;;;0.00;0.00;;;14.20;99.90;;;;;;5096833;28;20398;-79
2022/08/10 05:11:15;;;;;;;0.00;0.00;;;14.20;99.90;;;;;;5096659;28;20050;-79
2022/08/10 05:13:41;;;;;;;0.00;0.00;;;14.30;99.90;;;;;;5096960;28;20102;-79
2022/08/10 05:16:06;;;;;;;0.00;0.00;;;14.30;99.90;;;;;;5096414;28;20051;-79
2022/08/10 05:18:32;;;;;;;0.35;0.28;;;14.30;99.90;;;;;;5113402;28;20463;-79
2022/08/10 05:20:58;;;;;;;0.00;0.00;;;14.30;99.90;;;;;;5113431;28;20105;-79
2022/08/10 05:23:23;;;;;;;0.20;0.00;;;14.30;99.90;;;;;;5113414;28;20403;-79
2022/08/10 05:25:49;;;;;;;0.10;0.10;;;14.40;99.90;;;;;;5113509;28;20050;-78
2022/08/10 05:28:15;;;;;;;0.00;0.00;;;14.40;99.90;;;;;;5113740;28;20062;-79
2022/08/10 05:30:40;;;;;;;0.00;0.00;;;14.40;99.90;;;;;;5113193;28;20365;-79
2022/08/10 05:33:06;;;;;;;0.00;0.00;;;14.40;99.90;;;;;;5112946;28;20139;-79
2022/08/10 05:35:32;;;;;;;0.00;0.00;;;14.50;99.90;;;;;;5113272;28;20142;-79
2022/08/10 05:37:59;;;;;;;0.00;0.00;;;14.50;99.90;;;;;;5095692;28;20108;-79
2022/08/10 05:40:26;;;;;;;0.00;0.00;;;14.50;99.90;;;;;;5096219;28;20100;-79
2022/08/10 05:42:52;;;;;;;0.00;0.00;;;14.60;99.90;;;;;;5112755;28;20086;-78
2022/08/10 05:45:20;;;;;;;0.00;0.00;;;14.70;99.90;;;;;;5113173;28;20079;-78
2022/08/10 05:47:47;;;;;;;0.00;0.00;;;14.70;99.90;;;;;;5113205;28;20054;-79
2022/08/10 05:50:15;;;;;;;0.00;0.00;;;14.80;99.90;;;;;;5112622;28;20047;-79
2022/08/10 05:52:41;;;;;;;0.00;0.00;;;14.80;99.90;;;;;;5095752;28;20118;-79
2022/08/10 05:55:08;;;;;;;0.00;0.00;;;14.90;99.90;;;;;;5113550;28;20124;-79
2022/08/10 05:57:35;;;;;;;0.00;0.00;;;14.90;99.90;;;;;;5116325;28;20051;-79
2022/08/10 06:00:06;;;;;;;0.00;0.00;;;15.00;99.90;;;;;;5117024;28;20513;-79
2022/08/10 06:02:36;;;;;;;0.00;0.00;;;15.10;99.90;;;;;;5100005;28;20035;-79
2022/08/10 06:05:29;;;;;;;0.00;0.00;;;15.10;99.90;;;;;;5117045;28;20498;-78
2022/08/10 06:08:17;;;;;;;0.40;0.40;;;15.20;99.90;;;;;;5100010;28;20052;-78
2022/08/10 06:10:44;;;;;;;0.00;0.00;;;15.30;99.90;;;;;;5114844;28;20469;-78
2022/08/10 06:16:01;;;;;;;0.00;0.00;;;15.30;99.90;;;;;;5117115;28;20480;-78
2022/08/10 06:18:27;;;;;;;0.00;0.00;;;15.40;99.90;;;;;;5116608;28;20058;-79
2022/08/10 06:20:54;;;;;;;0.00;0.00;;;15.50;99.90;;;;;;5099454;28;20510;-79
2022/08/10 06:23:20;;;;;;;0.10;0.10;;;15.60;99.90;;;;;;5099403;28;20048;-79
2022/08/10 06:25:45;;;;;;;0.00;0.00;;;15.70;99.90;;;;;;5116595;28;20058;-79
2022/08/10 06:28:15;;;;;;;0.22;0.00;;;15.70;99.90;;;;;;5099021;28;20056;-79
2022/08/10 06:30:43;;;;;;;0.00;0.00;;;15.80;99.90;;;;;;5099335;28;20388;-79
2022/08/10 06:33:11;;;;;;;0.00;0.00;;;15.90;99.90;;;;;;5099046;28;20044;-79
2022/08/10 06:35:38;;;;;;;0.00;0.00;;;16.00;99.90;;;;;;5116445;28;20047;-79
2022/08/10 06:38:05;;;;;;;0.00;0.00;;;16.20;99.90;;;;;;5116612;28;20490;-79
2022/08/10 06:40:38;;;;;;;0.00;0.00;;;16.20;99.90;;;;;;5116660;28;20089;-79
2022/08/10 06:43:10;;;;;;;0.00;0.00;;;16.30;99.90;;;;;;5116373;28;20054;-79
2022/08/10 06:45:42;;;;;;;0.05;0.05;;;16.40;99.90;;;;;;5099642;28;20058;-79
2022/08/10 06:48:23;;;;;;;0.00;0.00;;;16.50;99.90;;;;;;5116180;28;20135;-79
2022/08/10 06:50:51;;;;;;;0.10;0.10;;;16.60;99.90;;;;;;5098828;28;20109;-80
2022/08/10 06:53:19;;;;;;;0.00;0.00;;;16.70;99.90;;;;;;5098556;28;20131;-79
2022/08/10 06:55:52;;;;;;;0.00;0.00;;;16.80;99.90;;;;;;5099150;28;20073;-80
2022/08/10 06:58:20;;;;;;;0.00;0.00;;;17.00;99.90;;;;;;5115937;28;20043;-79
2022/08/10 07:00:46;;;;;;;0.10;0.00;;;17.20;99.90;;;;;;5115741;28;20081;-79
2022/08/10 07:03:14;;;;;;;0.00;0.00;;;17.60;99.90;;;;;;5091680;28;20097;-80
2022/08/10 07:05:46;;;;;;;0.00;0.00;;;18.00;99.90;;;;;;5078192;28;20415;-80
2022/08/10 07:08:16;;;;;;;0.00;0.00;;;18.60;99.90;;;;;;5094336;28;20052;-80
2022/08/10 07:10:44;;;;;;;0.57;0.20;;;19.10;99.90;;;;;;5095350;28;20096;-80
2022/08/10 07:13:11;;;;;;;0.00;0.00;;;19.30;99.90;;;;;;5078076;28;20044;-80
2022/08/10 07:15:37;;;;;;;2.10;0.55;;;19.40;99.90;;;;;;5095249;28;20062;-80
2022/08/10 07:18:05;;;;;;;0.00;0.00;;;19.50;99.90;;;;;;5095205;28;20055;-81
2022/08/10 07:20:33;;;;;;;0.00;0.00;;;19.70;99.90;;;;;;5078132;28;20062;-81
2022/08/10 07:22:59;;;;;;;0.17;0.00;;;19.90;99.90;;;;;;5078385;28;20044;-81
2022/08/10 07:25:27;;;;;;;0.05;0.03;;;20.30;99.90;;;;;;5095156;28;20044;-80
2022/08/10 07:27:56;;;;;;;0.00;0.00;;;20.70;99.90;;;;;;5077896;28;20099;-80
2022/08/10 07:30:23;;;;;;;0.00;0.00;;;20.90;99.90;;;;;;5078027;28;20044;-82
2022/08/10 07:32:51;;;;;;;0.00;0.00;;;20.80;99.90;;;;;;5077982;28;20036;-81
2022/08/10 07:35:18;;;;;;;0.00;0.00;;;20.70;99.90;;;;;;5078029;28;20113;-82
2022/08/10 07:37:48;;;;;;;0.00;0.00;;;20.70;99.90;;;;;;5094996;28;20480;-81
2022/08/10 07:40:15;;;;;;;0.10;0.10;;;20.60;99.90;;;;;;5095309;28;20052;-81
2022/08/10 07:42:44;;;;;;;0.00;0.00;;;20.60;99.90;;;;;;5078253;28;20048;-81
2022/08/10 07:45:10;;;;;;;0.03;0.03;;;20.60;99.90;;;;;;5078056;28;20151;-81
2022/08/10 07:47:43;;;;;;;0.00;0.00;;;20.60;99.90;;;;;;5094871;28;20502;-80
2022/08/10 07:50:12;;;;;;;0.10;0.00;;;20.70;99.90;;;;;;5094860;28;20090;-80
2022/08/10 07:52:39;;;;;;;0.00;0.00;;;20.60;99.90;;;;;;5094682;28;20044;-80
2022/08/10 07:55:09;;;;;;;0.08;0.08;;;20.60;99.90;;;;;;5077853;28;20055;-80
2022/08/10 07:57:37;;;;;;;0.00;0.00;;;20.60;99.90;;;;;;5078027;28;20404;-80
2022/08/10 08:00:15;;;;;;;0.00;0.00;;;20.60;99.90;;;;;;5094746;28;20494;-80
2022/08/10 08:02:48;;;;;;;0.00;0.00;;;20.70;99.90;;;;;;5094557;28;20166;-80
2022/08/10 08:05:15;;;;;;;0.00;0.00;;;20.70;99.90;;;;;;5094453;28;20040;-80
2022/08/10 08:07:42;;;;;;;0.00;0.00;;;20.80;99.90;;;;;;5077646;28;20407;-80
2022/08/10 08:10:13;;;;;;;0.00;0.00;;;20.90;99.90;;;;;;5094282;28;20101;-80
2022/08/10 08:12:41;;;;;;;0.00;0.00;;;20.80;99.90;;;;;;5094023;28;20048;-79
2022/08/10 08:15:09;;;;;;;0.00;0.00;;;20.90;99.90;;;;;;5094382;28;20071;-79
2022/08/10 08:17:37;;;;;;;0.00;0.00;;;20.90;99.90;;;;;;5094209;28;20051;-79
2022/08/10 08:20:03;;;;;;;0.00;0.00;;;20.80;99.90;;;;;;5093679;28;20488;-79
2022/08/10 08:22:29;;;;;;;0.00;0.00;;;20.90;99.90;;;;;;5077072;28;20054;-79
2022/08/10 08:24:57;;;;;;;0.00;0.00;;;20.90;99.90;;;;;;5094612;28;20086;-79
2022/08/10 08:27:26;;;;;;;0.00;0.00;;;21.00;99.90;;;;;;5094146;28;20083;-79
2022/08/10 08:29:52;;;;;;;0.00;0.00;;;21.00;99.90;;;;;;5094142;28;20067;-80
2022/08/10 08:32:24;;;;;;;0.00;0.00;;;21.10;99.90;;;;;;5093867;28;20356;-79
2022/08/10 08:35:05;;;;;;;0.00;0.00;;;21.30;99.90;;;;;;5076792;28;20044;-79
2022/08/10 08:37:32;;;;;;;0.00;0.00;;;21.30;99.90;;;;;;5094058;28;20036;-79
2022/08/10 08:40:00;;;;;;;0.00;0.00;;;21.50;99.90;;;;;;5094157;28;20083;-79
2022/08/10 08:42:57;;;;;;;0.00;0.00;;;21.60;99.90;;;;;;5094031;28;20093;-80
2022/08/10 08:45:55;;;;;;;0.00;0.00;;;21.70;99.90;;;;;;4999979;28;20114;-79
2022/08/10 08:48:50;;;;;;;0.00;0.00;;;21.80;99.90;;;;;;4995988;28;20057;-79
2022/08/10 08:51:57;;;;;;;0.00;0.00;;;21.90;99.90;;;;;;5016013;28;20055;-80
2022/08/10 08:54:38;;;;;;;3.10;0.40;;;22.00;99.90;;;;;;4938623;29;20047;-80
2022/08/10 08:57:45;;;;;;;0.00;0.00;;;22.10;99.90;;;;;;4923019;29;20118;-80
2022/08/10 09:00:31;;;;;;;0.00;0.00;;;22.30;99.90;;;;;;4938826;29;20446;-80
2022/08/10 09:03:34;;;;;;;0.00;0.00;;;22.40;99.90;;;;;;4923147;29;20054;-80
2022/08/10 09:06:05;;;;;;;0.00;0.00;;;22.60;99.90;;;;;;4922336;29;20133;-80
2022/08/10 09:08:52;;;;;;;0.00;0.00;;;22.70;99.90;;;;;;4922899;29;20098;-80
2022/08/10 09:11:18;;;;;;;0.20;0.00;;;22.90;99.90;;;;;;4938514;29;20145;-80
2022/08/10 09:13:53;;;;;;;0.00;0.00;;;22.90;99.90;;;;;;4938296;29;20528;-80
2022/08/10 09:16:43;;;;;;;0.00;0.00;;;23.00;99.90;;;;;;4922338;29;20291;-80
2022/08/10 09:20:06;;;;;;;0.00;0.00;;;23.10;99.90;;;;;;4938598;29;20054;-81
2022/08/10 09:23:00;;;;;;;0.00;0.00;;;23.40;99.90;;;;;;4973654;28;20494;-80
2022/08/10 09:25:34;;;;;;;0.90;0.20;;;23.50;99.90;;;;;;4941105;28;20100;-81
2022/08/10 09:28:13;;;;;;;0.63;0.25;;;23.60;99.90;;;;;;4957661;28;20054;-81
2022/08/10 09:31:09;;;;;;;0.28;0.28;;;23.80;99.90;;;;;;4981992;28;20056;-81
2022/08/10 09:33:56;;;;;;;0.00;0.00;;;23.90;99.90;;;;;;5000254;28;20072;-81
2022/08/10 09:36:55;;;;;;;0.00;0.00;;;24.00;99.90;;;;;;4999905;28;20053;-82
2022/08/10 09:39:36;;;;;;;0.00;0.00;;;24.20;99.90;;;;;;5000023;28;20113;-81
2022/08/10 09:42:09;;;;;;;0.00;0.00;;;24.40;99.90;;;;;;4999733;28;20058;-81
2022/08/10 09:45:02;;;;;;;0.00;0.00;;;24.50;99.90;;;;;;5000118;28;20065;-81
2022/08/10 09:48:23;;;;;;;3.67;0.25;;;24.60;98.10;;;;;;4983031;28;20054;-81
2022/08/10 09:51:23;;;;;;;0.10;0.10;;;24.70;99.80;;;;;;4922542;29;20142;-81
2022/08/10 09:53:59;;;;;;;0.25;0.00;;;24.80;99.90;;;;;;4937091;29;20106;-81
2022/08/10 09:56:46;;;;;;;0.00;0.00;;;25.00;98.50;;;;;;4938865;29;20110;-81
2022/08/10 09:59:29;;;;;;;0.00;0.00;;;25.00;98.80;;;;;;4953249;28;20065;-81
2022/08/10 10:02:08;;;;;;;0.00;0.00;;;25.20;98.30;;;;;;4960491;28;20573;-81
2022/08/10 10:04:45;;;;;;;0.00;0.00;;;25.40;97.40;;;;;;4960655;28;20058;-81
2022/08/10 10:07:18;;;;;;;0.25;0.10;;;25.40;97.20;;;;;;4960878;28;20057;-81
2022/08/10 10:10:17;;;;;;;0.00;0.00;;;25.50;96.40;;;;;;4984052;28;20609;-81
2022/08/10 10:12:57;;;;;;;0.00;0.00;;;25.60;95.80;;;;;;5019215;28;20502;-81
2022/08/10 10:15:41;;;;;;;0.00;0.00;;;25.80;95.60;;;;;;5018804;28;20140;-81
2022/08/10 10:18:30;;;;;;;0.10;0.10;;;25.90;95.80;;;;;;5019350;28;20072;-82
2022/08/10 10:21:08;;;;;;;0.00;0.00;;;26.00;95.90;;;;;;5018081;28;20075;-81
2022/08/10 10:23:56;;;;;;;0.00;0.00;;;26.10;93.00;;;;;;5097189;28;20073;-81
2022/08/10 10:26:43;;;;;;;0.00;0.00;;;26.20;92.50;;;;;;5096820;28;20044;-81
2022/08/10 10:29:23;;;;;;;0.00;0.00;;;26.40;93.90;;;;;;5079362;28;20502;-82
2022/08/10 10:32:20;;;;;;;0.00;0.00;;;26.50;91.10;;;;;;5079278;28;20051;-81
2022/08/10 10:34:50;;;;;;;0.00;0.00;;;26.60;92.10;;;;;;5096420;28;20040;-81
2022/08/10 10:37:22;;;;;;;0.00;0.00;;;26.80;91.70;;;;;;5096671;28;20040;-81
2022/08/10 10:39:53;;;;;;;0.00;0.00;;;27.00;91.80;;;;;;5079477;28;20165;-81
2022/08/10 10:42:37;;;;;;;0.00;0.00;;;27.20;92.10;;;;;;5079668;28;20075;-81
2022/08/10 10:45:45;;;;;;;0.00;0.00;;;27.20;89.20;;;;;;5079559;28;20048;-81
2022/08/10 10:48:32;;;;;;;0.00;0.00;;;27.30;90.40;;;;;;5018788;28;20351;-82
2022/08/10 10:51:24;;;;;;;0.00;0.00;;;27.30;85.00;;;;;;5002053;28;20532;-82
2022/08/10 10:54:04;;;;;;;0.00;0.00;;;27.40;82.40;;;;;;5001705;28;20675;-82
2022/08/10 10:56:41;;;;;;;0.00;0.00;;;27.40;85.30;;;;;;5002242;28;20092;-82
2022/08/10 10:59:18;;;;;;;0.00;0.00;;;27.50;83.80;;;;;;5018535;28;20552;-82
2022/08/10 11:02:16;;;;;;;0.00;0.00;;;27.60;84.80;;;;;;5018832;28;20061;-82
2022/08/10 11:04:50;;;;;;;0.10;0.00;;;27.70;81.70;;;;;;4979459;28;20050;-82
2022/08/10 11:07:33;;;;;;;;;;;27.90;87.20;;;;;;4980236;28;20088;-82
2022/08/10 11:10:08;;;;;;;0.00;0.00;;;28.00;78.00;;;;;;4979286;28;20041;-82
2022/08/10 11:12:56;;;;;;;0.00;0.00;;;28.10;78.80;;;;;;4978728;28;20453;-82
2022/08/10 11:15:37;;;;;;;0.00;0.00;;;28.30;79.40;;;;;;4995246;28;20087;-82
2022/08/10 11:18:26;;;;;;;0.00;0.00;;;28.30;77.70;;;;;;4979076;28;20112;-82
2022/08/10 11:21:23;;;;;;;3.30;0.43;;;28.10;76.90;;;;;;4963189;28;20067;-82
2022/08/10 11:24:19;;;;;;;0.00;0.00;;;28.20;79.70;;;;;;4983789;28;20046;-82
2022/08/10 11:26:54;;;;;;;0.00;0.00;;;28.40;78.60;;;;;;5057789;28;20049;-82
2022/08/10 11:29:32;;;;;;;0.00;0.00;;;28.60;74.30;;;;;;5040665;28;20061;-82
2022/08/10 11:31:58;;;;;;;0.00;0.00;;;28.70;73.40;;;;;;5057905;28;20044;-82
2022/08/10 11:34:40;;;;;;;0.13;0.10;;;28.90;76.70;;;;;;5057445;28;20453;-82
2022/08/10 11:37:32;;;;;;;0.00;0.00;;;29.00;74.00;;;;;;5057597;28;20510;-82
2022/08/10 11:40:23;;;;;;;0.00;0.00;;;29.20;76.20;;;;;;5057396;28;20435;-82
2022/08/10 11:42:58;;;;;;;0.00;0.00;;;29.30;72.90;;;;;;5077995;28;20056;-82
2022/08/10 11:45:33;;;;;;;0.20;0.10;;;29.10;70.70;;;;;;5078158;28;20055;-82
2022/08/10 11:48:10;;;;;;;0.00;0.00;;;29.10;70.80;;;;;;5077834;28;20492;-82
2022/08/10 11:50:46;;;;;;;0.00;0.00;;;28.90;68.60;;;;;;5094491;28;20139;-83
2022/08/10 11:53:28;;;;;;;0.30;0.00;;;28.90;68.70;;;;;;5077931;28;20051;-83
2022/08/10 11:55:57;;;;;;;0.00;0.00;;;29.20;71.40;;;;;;5078085;28;20044;-82
2022/08/10 12:01:20;;;;;;;;;;;29.20;66.60;;;;;;5095679;28;20074;-82
2022/08/10 12:03:47;;;;;;;0.00;0.00;;;29.20;67.20;;;;;;5094948;28;19988;-82
2022/08/10 12:06:16;;;;;;;0.00;0.00;;;29.30;67.90;;;;;;5077886;28;20554;-82
2022/08/10 12:08:44;;;;;;;0.20;0.10;;;29.40;70.50;;;;;;5077651;28;20067;-82
2022/08/10 12:11:14;;;;;;;0.00;0.00;;;29.50;68.20;;;;;;5094684;28;20476;-83
2022/08/10 12:13:59;;;;;;;0.00;0.00;;;29.60;67.70;;;;;;5077643;28;20040;-82
2022/08/10 12:16:27;;;;;;;0.00;0.00;;;29.60;67.50;;;;;;5094497;28;20048;-82
2022/08/10 12:19:04;;;;;;;0.00;0.00;;;29.70;64.30;;;;;;5077635;28;20052;-82
2022/08/10 12:21:37;;;;;;;0.00;0.00;;;29.60;64.10;;;;;;5094324;28;20062;-82
2022/08/10 12:24:10;;;;;;;0.00;0.00;;;29.80;67.30;;;;;;5095447;28;20387;-83
2022/08/10 12:26:49;;;;;;;0.00;0.00;;;29.80;63.80;;;;;;5094969;28;20082;-82
2022/08/10 12:29:57;;;;;;;0.00;0.00;;;30.00;65.80;;;;;;5094744;28;20048;-82
2022/08/10 12:32:58;;;;;;;0.00;0.00;;;30.00;66.50;;;;;;5000240;28;20107;-82
2022/08/10 12:35:57;;;;;;;0.00;0.00;;;30.10;64.80;;;;;;5017244;28;20093;-82
2022/08/10 12:38:48;;;;;;;0.00;0.00;;;30.10;63.80;;;;;;5016758;28;20056;-83
2022/08/10 12:41:23;;;;;;;0.00;0.00;;;30.10;64.00;;;;;;5000491;28;20472;-82
2022/08/10 12:43:57;;;;;;;0.00;0.00;;;30.10;64.80;;;;;;4999772;28;20057;-82
2022/08/10 12:46:40;;;;;;;0.00;0.00;;;30.10;62.90;;;;;;5016260;28;20050;-83
2022/08/10 12:49:18;;;;;;;0.00;0.00;;;30.40;66.00;;;;;;5016404;28;20527;-82
2022/08/10 12:51:49;;;;;;;0.00;0.00;;;30.50;62.30;;;;;;5016285;28;20060;-82
2022/08/10 12:54:20;;;;;;;0.22;0.00;;;30.50;63.40;;;;;;5016310;28;20061;-82
2022/08/10 12:57:11;;;;;;;0.00;0.00;;;30.50;64.20;;;;;;5016004;28;20473;-82
2022/08/10 12:59:51;;;;;;;0.00;0.00;;;30.50;63.50;;;;;;4939063;29;20059;-82
2022/08/10 13:02:32;;;;;;;1.30;0.22;;;30.50;62.10;;;;;;4938662;29;20086;-83
2022/08/10 13:05:07;;;;;;;0.00;0.00;;;30.70;62.50;;;;;;4938729;29;20055;-82
2022/08/10 13:07:36;;;;;;;0.00;0.00;;;30.70;61.30;;;;;;4963434;28;20053;-82
2022/08/10 13:10:09;;;;;;;0.28;0.00;;;30.80;59.70;;;;;;5015768;28;20057;-82
2022/08/10 13:12:39;;;;;;;0.00;0.00;;;30.90;60.40;;;;;;5016083;28;20590;-82
2022/08/10 13:15:43;;;;;;;0.00;0.00;;;31.00;60.30;;;;;;4999830;28;20046;-82
2022/08/10 13:18:10;;;;;;;0.00;0.00;;;31.10;61.90;;;;;;4938590;29;20082;-83
2022/08/10 13:20:39;;;;;;;0.00;0.00;;;31.10;60.30;;;;;;4938422;29;20384;-82
2022/08/10 13:23:11;;;;;;;0.00;0.00;;;31.00;60.70;;;;;;4938688;29;20063;-83
2022/08/10 13:25:40;;;;;;;0.00;0.00;;;31.00;58.70;;;;;;4938492;29;20059;-82
2022/08/10 13:28:11;;;;;;;0.00;0.00;;;31.10;59.90;;;;;;4938842;29;20058;-85